This is the latest recevied weather packets stored in our database for station/object OK2PAT-12. If no packets are shown the sender has not sent any weather packets the latest 10 day(s).
| Time | Temp. | Humidity | Pressure | Rain* | Wind** | Luminosity | Snow |
|---|---|---|---|---|---|---|---|
| 1777330492 | 7.78° C | 52% | 1022.6 hPa | - | - | - | - |
| 1777329892 | 7.78° C | 51% | 1022.6 hPa | - | - | - | - |
| 1777329292 | 7.78° C | 50% | 1022.6 hPa | - | - | - | - |
| 1777328692 | 7.78° C | 49% | 1022.6 hPa | - | - | - | - |
| 1777328092 | 7.78° C | 48% | 1022.6 hPa | - | - | - | - |
| 1777327492 | 8.33° C | 47% | 1022.6 hPa | - | - | - | - |
| 1777326892 | 8.33° C | 47% | 1022.7 hPa | - | - | - | - |
| 1777326292 | 8.33° C | 46% | 1022.8 hPa | - | - | - | - |
| 1777325692 | 8.33° C | 46% | 1022.8 hPa | - | - | - | - |
| 1777325092 | 8.33° C | 45% | 1022.8 hPa | - | - | - | - |
| 1777324492 | 8.33° C | 45% | 1022.8 hPa | - | - | - | - |
| 1777323892 | 8.33° C | 45% | 1022.8 hPa | - | - | - | - |
| 1777323292 | 8.33° C | 46% | 1022.7 hPa | - | - | - | - |
| 1777322694 | 8.33° C | 46% | 1022.7 hPa | - | - | - | - |
| 1777322092 | 8.89° C | 45% | 1022.7 hPa | - | - | - | - |
| 1777321099 | 8.89° C | 44% | 1022.6 hPa | - | - | - | - |
| 1777314718 | 10.56° C | 42% | 1022.3 hPa | - | - | - | - |
| 1777314118 | 11.11° C | 43% | 1022.2 hPa | - | - | - | - |
| 1777313518 | 11.11° C | 43% | 1022.2 hPa | - | - | - | - |
| 1777312918 | 11.67° C | 42% | 1022.1 hPa | - | - | - | - |
| 1777312318 | 11.67° C | 42% | 1022.1 hPa | - | - | - | - |
| 1777311718 | 11.67° C | 42% | 1022.1 hPa | - | - | - | - |
| 1777311118 | 12.22° C | 42% | 1022.1 hPa | - | - | - | - |
| 1777310518 | 12.22° C | 41% | 1022.1 hPa | - | - | - | - |
| 1777309918 | 12.78° C | 41% | 1022.1 hPa | - | - | - | - |
* Rain since midnight (hover to see other rain measurements)
** Current wind speed in m/s (hover to see current wind gust speed)